Time;durP1;ratioP1;P1;durP2;ratioP2;P2;SDS_P1;SDS_P2;PMS_P1;PMS_P2;Temp;Humidity;BMP_temperature;BMP_pressure;BME280_temperature;BME280_humidity;BME280_pressure;Samples;Min_cycle;Max_cycle;Signal;HPM_P1;HPM_P2
2022/02/26 00:01:36;;;;;;;4.78;1.40;;;3.80;96.60;;;;;;5045472;28;20389;-65
2022/02/26 00:04:02;;;;;;;7.05;1.20;;;3.80;96.60;;;;;;5041513;28;20498;-65
2022/02/26 00:06:27;;;;;;;7.30;1.60;;;3.80;96.70;;;;;;5044763;28;20021;-65
2022/02/26 00:08:53;;;;;;;5.78;1.30;;;3.80;96.70;;;;;;5043212;28;20040;-65
2022/02/26 00:11:18;;;;;;;10.50;1.95;;;3.70;96.70;;;;;;5047848;28;20126;-66
2022/02/26 00:13:44;;;;;;;7.47;2.00;;;3.80;96.80;;;;;;5044444;28;20182;-66
2022/02/26 00:16:09;;;;;;;6.13;1.90;;;3.70;96.80;;;;;;5046123;28;20036;-65
2022/02/26 00:18:35;;;;;;;8.38;1.50;;;3.70;96.90;;;;;;5045136;28;20025;-65
2022/02/26 00:21:01;;;;;;;4.80;1.45;;;3.60;96.90;;;;;;5046557;28;20028;-65
2022/02/26 00:23:26;;;;;;;5.97;1.25;;;3.60;96.90;;;;;;5039966;28;20055;-66
2022/02/26 00:25:52;;;;;;;4.10;1.23;;;3.60;97.00;;;;;;5044967;28;20023;-65
2022/02/26 00:28:18;;;;;;;4.10;1.20;;;3.60;97.00;;;;;;5044604;28;20100;-65
2022/02/26 00:30:43;;;;;;;5.15;1.10;;;3.60;97.10;;;;;;5040579;28;20574;-65
2022/02/26 00:33:09;;;;;;;6.60;1.58;;;3.60;97.10;;;;;;5037522;28;20033;-65
2022/02/26 00:35:34;;;;;;;6.13;1.20;;;3.50;97.00;;;;;;5039576;28;20500;-65
2022/02/26 00:38:00;;;;;;;5.15;1.55;;;3.50;97.10;;;;;;5043341;28;20017;-65
2022/02/26 00:40:26;;;;;;;7.15;1.38;;;3.50;97.10;;;;;;5035812;28;20079;-65
2022/02/26 00:42:51;;;;;;;5.68;1.25;;;3.40;97.10;;;;;;5038571;28;20118;-65
2022/02/26 00:45:17;;;;;;;4.70;1.20;;;3.40;97.10;;;;;;5036887;28;20053;-66
2022/02/26 00:47:42;;;;;;;4.55;1.30;;;3.40;97.10;;;;;;5038121;28;20461;-66
2022/02/26 00:50:08;;;;;;;6.28;1.40;;;3.40;97.20;;;;;;5039892;28;20041;-65
2022/02/26 00:52:34;;;;;;;8.68;1.55;;;3.30;97.20;;;;;;5033958;28;20474;-66
2022/02/26 00:55:01;;;;;;;8.15;1.48;;;3.30;97.20;;;;;;5041814;28;20028;-65
2022/02/26 00:57:26;;;;;;;6.97;1.77;;;3.20;97.10;;;;;;5047079;28;20024;-65
2022/02/26 00:59:52;;;;;;;5.35;1.38;;;3.10;97.20;;;;;;5036627;28;20686;-65
2022/02/26 01:02:18;;;;;;;7.50;1.50;;;3.10;97.30;;;;;;5039021;28;20027;-66
2022/02/26 01:04:44;;;;;;;6.95;1.80;;;3.10;97.30;;;;;;5046096;28;20028;-66
2022/02/26 01:07:10;;;;;;;7.00;2.20;;;3.00;97.40;;;;;;5046255;28;20021;-66
2022/02/26 01:09:36;;;;;;;4.53;1.40;;;2.90;97.40;;;;;;5042139;28;20029;-66
2022/02/26 01:12:03;;;;;;;6.05;1.67;;;2.80;97.60;;;;;;5051328;28;20021;-66
2022/02/26 01:14:30;;;;;;;8.93;1.50;;;2.80;97.90;;;;;;5050327;28;20021;-66
2022/02/26 01:16:55;;;;;;;5.13;1.27;;;2.80;97.80;;;;;;5044153;28;20028;-67
2022/02/26 01:19:21;;;;;;;6.00;1.30;;;2.80;97.90;;;;;;5043964;28;20029;-66
2022/02/26 01:21:46;;;;;;;3.40;1.20;;;2.80;97.90;;;;;;5051229;28;20029;-67
2022/02/26 01:24:13;;;;;;;5.93;1.35;;;2.80;97.90;;;;;;5046294;28;20477;-67
2022/02/26 01:26:39;;;;;;;3.88;1.30;;;2.80;97.90;;;;;;5047391;28;20100;-66
2022/02/26 01:29:05;;;;;;;6.35;1.50;;;2.80;97.90;;;;;;5044919;28;20028;-67
2022/02/26 01:31:33;;;;;;;4.20;1.05;;;2.80;98.00;;;;;;5045973;28;20025;-67
2022/02/26 01:33:59;;;;;;;5.90;1.40;;;2.70;98.00;;;;;;5048702;28;20021;-67
2022/02/26 01:36:26;;;;;;;4.63;1.38;;;2.70;98.00;;;;;;5050028;28;20024;-67
2022/02/26 01:38:52;;;;;;;3.67;1.08;;;2.70;98.10;;;;;;5043026;28;20533;-66
2022/02/26 01:41:18;;;;;;;7.82;1.83;;;2.60;98.10;;;;;;5047339;28;20074;-67
2022/02/26 01:43:44;;;;;;;9.50;2.33;;;2.60;98.20;;;;;;5049527;28;20045;-67
2022/02/26 01:46:11;;;;;;;8.02;2.75;;;2.50;98.40;;;;;;5043053;28;20434;-67
2022/02/26 01:48:37;;;;;;;14.50;3.00;;;2.30;98.60;;;;;;5046706;28;20152;-67
2022/02/26 01:51:04;;;;;;;9.20;3.00;;;2.30;98.90;;;;;;5045665;28;20021;-67
2022/02/26 01:53:30;;;;;;;5.85;2.28;;;2.20;99.30;;;;;;5049553;28;20481;-66
2022/02/26 01:55:56;;;;;;;7.18;2.33;;;2.20;99.60;;;;;;5049263;28;20036;-66
2022/02/26 01:58:21;;;;;;;6.78;1.73;;;2.10;99.80;;;;;;5049622;28;20095;-66
2022/02/26 02:00:47;;;;;;;5.97;1.83;;;2.10;99.80;;;;;;5049617;28;20464;-66
2022/02/26 02:03:12;;;;;;;8.30;1.98;;;2.10;99.80;;;;;;5046682;28;20039;-67
2022/02/26 02:05:39;;;;;;;7.88;1.98;;;2.10;99.80;;;;;;5047847;28;20025;-67
2022/02/26 02:08:05;;;;;;;4.15;1.40;;;2.10;99.70;;;;;;5045331;28;20644;-66
2022/02/26 02:10:31;;;;;;;6.40;1.30;;;2.20;99.70;;;;;;5046615;28;20125;-66
2022/02/26 02:12:58;;;;;;;12.00;2.45;;;2.20;99.70;;;;;;5049113;28;20028;-66
2022/02/26 02:15:40;;;;;;;6.43;2.45;;;2.20;99.60;;;;;;5049579;28;20025;-66
2022/02/26 02:18:09;;;;;;;9.68;2.55;;;2.10;99.70;;;;;;5045708;28;20036;-66
2022/02/26 02:20:34;;;;;;;8.30;1.73;;;1.90;99.90;;;;;;5048230;28;20393;-66
2022/02/26 02:23:00;;;;;;;4.70;1.65;;;1.90;99.90;;;;;;5045288;28;20025;-66
2022/02/26 02:25:28;;;;;;;11.38;1.38;;;1.90;99.90;;;;;;5041995;28;20037;-67
2022/02/26 02:27:55;;;;;;;5.78;1.45;;;1.90;99.90;;;;;;5048813;28;20025;-67
2022/02/26 02:30:25;;;;;;;4.75;1.23;;;1.90;99.90;;;;;;5044774;28;20029;-67
2022/02/26 02:32:51;;;;;;;4.82;1.40;;;1.90;99.90;;;;;;5044938;28;20429;-67
2022/02/26 02:35:35;;;;;;;7.65;1.60;;;1.90;99.90;;;;;;5048705;28;20033;-67
2022/02/26 02:38:06;;;;;;;7.78;2.50;;;2.00;99.90;;;;;;5047433;28;20025;-67
2022/02/26 02:40:32;;;;;;;4.50;1.20;;;2.00;99.90;;;;;;5042033;28;20091;-67
2022/02/26 02:42:57;;;;;;;3.70;1.10;;;2.00;99.90;;;;;;5047078;28;20606;-67
2022/02/26 02:45:23;;;;;;;5.22;2.17;;;2.00;99.90;;;;;;5047439;28;20025;-67
2022/02/26 02:47:49;;;;;;;6.13;1.48;;;1.90;99.90;;;;;;5048729;28;20036;-67
2022/02/26 02:50:16;;;;;;;5.35;1.20;;;1.90;99.90;;;;;;5044343;28;20481;-67
2022/02/26 02:52:43;;;;;;;5.13;1.23;;;1.90;99.90;;;;;;5048586;28;20393;-67
2022/02/26 02:55:09;;;;;;;3.03;1.20;;;1.90;99.90;;;;;;5047164;28;20025;-67
2022/02/26 02:57:35;;;;;;;3.20;1.17;;;1.90;99.90;;;;;;5048477;28;20033;-67
2022/02/26 03:00:03;;;;;;;8.85;3.03;;;1.90;99.90;;;;;;5048346;28;20102;-67
2022/02/26 03:02:28;;;;;;;9.15;2.95;;;1.70;99.90;;;;;;5048774;28;20016;-67
2022/02/26 03:04:54;;;;;;;14.93;3.00;;;1.40;99.90;;;;;;5045616;28;20363;-66
2022/02/26 03:07:19;;;;;;;15.95;3.88;;;1.30;99.90;;;;;;5046038;28;20029;-67
2022/02/26 03:09:45;;;;;;;12.65;4.05;;;1.10;99.90;;;;;;5048530;28;20472;-67
2022/02/26 03:12:10;;;;;;;12.68;3.40;;;1.10;99.90;;;;;;5048532;28;20057;-67
2022/02/26 03:14:36;;;;;;;9.88;3.35;;;1.00;99.90;;;;;;5043731;28;20119;-67
2022/02/26 03:17:02;;;;;;;13.27;3.78;;;0.90;99.90;;;;;;5044611;28;20021;-67
2022/02/26 03:19:28;;;;;;;8.20;2.78;;;0.80;99.90;;;;;;5043344;28;20041;-67
2022/02/26 03:21:53;;;;;;;9.07;2.63;;;0.80;99.90;;;;;;5045793;28;20022;-67
2022/02/26 03:24:19;;;;;;;9.73;2.58;;;0.90;99.90;;;;;;5048447;28;20025;-67
2022/02/26 03:26:44;;;;;;;4.95;2.08;;;1.00;99.90;;;;;;5048329;28;20033;-67
2022/02/26 03:29:10;;;;;;;13.75;5.78;;;1.00;99.90;;;;;;5048190;28;20029;-68
2022/02/26 03:31:36;;;;;;;12.77;3.78;;;1.00;99.90;;;;;;5051812;28;20107;-67
2022/02/26 03:34:02;;;;;;;7.38;2.53;;;1.10;99.90;;;;;;5052315;28;20029;-67
2022/02/26 03:36:32;;;;;;;11.73;2.85;;;1.10;99.90;;;;;;5052349;28;20025;-68
2022/02/26 03:38:58;;;;;;;;;;;1.10;99.90;;;;;;5049721;28;20029;-67
2022/02/26 03:41:23;;;;;;;3.28;2.00;;;1.10;99.90;;;;;;5052140;28;19915;-67
2022/02/26 03:43:49;;;;;;;8.25;1.75;;;1.10;99.90;;;;;;5049335;28;20524;-69
2022/02/26 03:46:14;;;;;;;2.97;1.50;;;1.10;99.90;;;;;;5051823;28;20052;-67
2022/02/26 03:48:40;;;;;;;3.95;1.58;;;1.10;99.90;;;;;;5047789;28;20037;-68
2022/02/26 03:51:05;;;;;;;5.68;1.50;;;1.10;99.90;;;;;;5050504;28;20029;-67
2022/02/26 03:53:32;;;;;;;5.65;1.88;;;1.10;99.90;;;;;;5051853;28;20025;-68
2022/02/26 03:55:58;;;;;;;6.22;2.38;;;1.20;99.90;;;;;;5051699;28;20095;-69
2022/02/26 03:58:24;;;;;;;8.10;2.35;;;1.20;99.90;;;;;;5050491;28;20027;-68
2022/02/26 04:00:50;;;;;;;4.95;2.15;;;1.20;99.90;;;;;;5050185;28;20029;-65
2022/02/26 04:03:16;;;;;;;4.35;1.75;;;1.20;99.90;;;;;;5048810;28;20017;-67
2022/02/26 04:05:41;;;;;;;6.38;1.92;;;1.30;99.90;;;;;;5050250;28;20033;-67
2022/02/26 04:08:07;;;;;;;5.63;2.53;;;1.30;99.90;;;;;;5051708;28;20129;-68
2022/02/26 04:10:33;;;;;;;7.80;2.70;;;1.30;99.90;;;;;;5048721;28;20025;-66
2022/02/26 04:12:58;;;;;;;8.48;2.80;;;1.30;99.90;;;;;;5051431;28;20439;-66
2022/02/26 04:15:24;;;;;;;15.85;3.70;;;1.30;99.90;;;;;;5050081;28;20067;-66
2022/02/26 04:17:49;;;;;;;10.25;2.58;;;1.30;99.90;;;;;;5051527;28;20039;-66
2022/02/26 04:20:15;;;;;;;8.45;3.20;;;1.30;99.90;;;;;;5048334;28;20095;-67
2022/02/26 04:22:40;;;;;;;10.45;3.15;;;1.30;99.90;;;;;;5047804;28;20499;-67
2022/02/26 04:25:07;;;;;;;14.57;4.32;;;1.30;99.90;;;;;;5049598;28;20465;-67
2022/02/26 04:27:32;;;;;;;9.20;3.85;;;1.40;99.90;;;;;;5049834;28;20396;-67
2022/02/26 04:29:58;;;;;;;11.20;3.40;;;1.40;99.90;;;;;;5050949;28;20029;-67
2022/02/26 04:32:24;;;;;;;9.90;3.72;;;1.40;99.90;;;;;;5048381;28;20028;-67
2022/02/26 04:34:49;;;;;;;9.15;3.45;;;1.40;99.90;;;;;;5048437;28;20025;-67
2022/02/26 04:37:17;;;;;;;12.90;4.25;;;1.40;99.90;;;;;;5050918;28;20025;-67
2022/02/26 04:39:43;;;;;;;9.55;4.53;;;1.40;99.90;;;;;;5049586;28;20456;-67
2022/02/26 04:42:09;;;;;;;10.65;3.78;;;1.40;99.90;;;;;;5044834;28;20021;-67
2022/02/26 04:44:34;;;;;;;10.88;4.18;;;1.40;99.90;;;;;;5051066;28;20057;-67
2022/02/26 04:47:00;;;;;;;8.98;4.05;;;1.40;99.90;;;;;;5049610;28;20031;-67
2022/02/26 04:49:25;;;;;;;13.98;5.13;;;1.40;99.90;;;;;;5047904;28;20473;-67
2022/02/26 04:51:51;;;;;;;11.18;5.45;;;1.30;99.90;;;;;;5049752;28;20036;-67
2022/02/26 04:54:17;;;;;;;13.20;5.80;;;1.30;99.90;;;;;;5050582;28;20031;-66
2022/02/26 04:56:42;;;;;;;11.07;5.55;;;1.20;99.90;;;;;;5047075;28;20101;-67
2022/02/26 04:59:08;;;;;;;21.98;4.50;;;1.10;99.90;;;;;;5047767;28;20060;-67
2022/02/26 05:01:34;;;;;;;9.10;4.15;;;1.10;99.90;;;;;;5050821;28;20464;-67
2022/02/26 05:03:59;;;;;;;10.88;5.07;;;1.10;99.90;;;;;;5047935;28;20465;-67
2022/02/26 05:06:25;;;;;;;7.65;3.67;;;1.10;99.90;;;;;;5049208;28;20427;-67
2022/02/26 05:08:50;;;;;;;10.20;3.72;;;1.10;99.90;;;;;;5048000;28;20083;-67
2022/02/26 05:11:16;;;;;;;8.23;3.28;;;1.10;99.90;;;;;;5048868;28;20020;-67
2022/02/26 05:13:41;;;;;;;8.48;4.18;;;1.10;99.90;;;;;;5050400;28;20098;-67
2022/02/26 05:16:07;;;;;;;7.90;3.90;;;1.20;99.90;;;;;;5043609;28;20500;-67
2022/02/26 05:18:33;;;;;;;7.60;4.28;;;1.20;99.90;;;;;;5050303;28;20052;-67
2022/02/26 05:20:59;;;;;;;10.35;3.72;;;1.20;99.90;;;;;;5050107;28;20025;-66
2022/02/26 05:23:24;;;;;;;10.07;4.70;;;1.20;99.90;;;;;;5046128;28;20021;-67
2022/02/26 05:25:50;;;;;;;14.00;5.60;;;1.20;99.90;;;;;;5048770;28;20416;-67
2022/02/26 05:28:15;;;;;;;10.27;5.25;;;1.20;99.90;;;;;;5047263;28;20024;-67
2022/02/26 05:30:41;;;;;;;12.82;4.93;;;1.20;99.90;;;;;;5050062;28;20036;-67
2022/02/26 05:33:06;;;;;;;12.88;5.20;;;1.20;99.90;;;;;;5048641;28;20017;-67
2022/02/26 05:35:32;;;;;;;14.23;5.15;;;1.20;99.90;;;;;;5045949;28;20110;-67
2022/02/26 05:37:58;;;;;;;10.98;5.75;;;1.20;99.90;;;;;;5047969;28;20488;-67
2022/02/26 05:40:24;;;;;;;11.60;5.30;;;1.20;99.90;;;;;;5047687;28;20052;-67
2022/02/26 05:42:49;;;;;;;13.55;6.28;;;1.20;99.90;;;;;;5049877;28;20500;-67
2022/02/26 05:45:15;;;;;;;10.85;6.20;;;1.20;99.90;;;;;;5048162;28;20045;-67
2022/02/26 05:47:40;;;;;;;9.55;5.80;;;1.20;99.90;;;;;;5048997;28;20548;-67
2022/02/26 05:50:07;;;;;;;11.63;4.90;;;1.20;99.90;;;;;;5047989;28;20033;-66
2022/02/26 05:52:32;;;;;;;8.75;5.13;;;1.20;99.90;;;;;;5049495;28;20035;-67
2022/02/26 05:54:58;;;;;;;13.23;6.60;;;1.20;99.90;;;;;;5048649;28;20111;-67
2022/02/26 05:57:24;;;;;;;9.38;6.20;;;1.30;99.90;;;;;;5049578;28;20021;-67
2022/02/26 05:59:50;;;;;;;7.57;4.68;;;1.30;99.90;;;;;;5046743;28;20047;-67
2022/02/26 06:02:15;;;;;;;9.68;4.85;;;1.30;99.90;;;;;;5046591;28;20021;-67
2022/02/26 06:04:41;;;;;;;8.02;4.60;;;1.30;99.90;;;;;;5048932;28;20457;-67
2022/02/26 06:07:07;;;;;;;7.10;4.72;;;1.20;99.90;;;;;;5047638;28;20468;-67
2022/02/26 06:09:32;;;;;;;8.55;4.72;;;1.20;99.90;;;;;;5046610;28;20412;-67
2022/02/26 06:11:58;;;;;;;8.30;3.83;;;1.20;99.90;;;;;;5042602;28;20043;-67
2022/02/26 06:14:32;;;;;;;8.85;5.05;;;1.20;99.90;;;;;;5052408;28;20474;-66
2022/02/26 06:16:57;;;;;;;9.50;5.80;;;1.20;99.90;;;;;;5060956;28;20025;-67
2022/02/26 06:19:23;;;;;;;11.95;5.43;;;1.20;99.90;;;;;;5045913;28;20075;-66
2022/02/26 06:21:48;;;;;;;11.63;5.18;;;1.20;99.90;;;;;;5045894;28;20021;-67
2022/02/26 06:24:15;;;;;;;11.35;5.22;;;1.20;99.90;;;;;;5044423;28;20432;-67
2022/02/26 06:26:41;;;;;;;9.57;5.53;;;1.20;99.90;;;;;;5058169;28;20055;-67
2022/02/26 06:29:06;;;;;;;8.90;4.63;;;1.10;99.90;;;;;;5045914;28;20029;-67
2022/02/26 06:31:32;;;;;;;9.00;4.80;;;1.10;99.90;;;;;;5045601;28;20417;-67
2022/02/26 06:33:57;;;;;;;8.95;5.18;;;1.10;99.90;;;;;;5047073;28;20455;-67
2022/02/26 06:36:23;;;;;;;8.60;4.70;;;1.10;99.90;;;;;;5047739;28;20025;-67
2022/02/26 06:38:49;;;;;;;7.78;5.07;;;1.10;99.90;;;;;;5048654;28;20075;-67
2022/02/26 06:41:14;;;;;;;10.52;4.72;;;1.10;99.90;;;;;;5032961;28;20022;-66
2022/02/26 06:43:40;;;;;;;10.25;4.78;;;1.00;99.90;;;;;;5029075;28;20030;-67
2022/02/26 06:46:06;;;;;;;8.43;4.70;;;1.00;99.90;;;;;;5044360;28;20513;-67
2022/02/26 06:48:32;;;;;;;11.85;5.32;;;1.00;99.90;;;;;;5029301;28;20174;-67
2022/02/26 06:50:58;;;;;;;11.50;5.80;;;1.00;99.90;;;;;;5037097;28;20018;-67
2022/02/26 06:53:24;;;;;;;11.00;5.88;;;1.00;99.90;;;;;;5049125;28;20124;-66
2022/02/26 06:55:49;;;;;;;12.77;5.60;;;0.90;99.90;;;;;;5049223;28;20041;-66
2022/02/26 06:58:15;;;;;;;13.43;6.80;;;0.90;99.90;;;;;;5049302;28;20385;-66
2022/02/26 07:00:40;;;;;;;12.48;5.93;;;0.90;99.90;;;;;;5049159;28;20021;-66
2022/02/26 07:03:06;;;;;;;10.20;6.05;;;0.90;99.90;;;;;;5049089;28;20029;-66
2022/02/26 07:05:31;;;;;;;8.20;5.22;;;0.90;99.90;;;;;;5047796;28;20473;-66
2022/02/26 07:07:57;;;;;;;10.50;5.18;;;0.80;99.90;;;;;;5049061;28;20040;-66
2022/02/26 07:10:22;;;;;;;9.15;5.40;;;0.80;99.90;;;;;;5048956;28;20413;-67
2022/02/26 07:12:48;;;;;;;11.48;4.50;;;0.90;99.90;;;;;;5047313;28;20390;-66
2022/02/26 07:15:13;;;;;;;7.03;4.45;;;0.90;99.90;;;;;;5043645;28;20026;-66
2022/02/26 07:17:39;;;;;;;7.70;4.70;;;0.90;99.90;;;;;;5048135;28;20053;-66
2022/02/26 07:20:06;;;;;;;7.93;4.78;;;0.90;99.90;;;;;;5048868;28;20023;-65
2022/02/26 07:22:31;;;;;;;6.13;3.78;;;0.90;99.90;;;;;;5047525;28;20021;-66
2022/02/26 07:24:57;;;;;;;6.85;4.25;;;0.90;99.90;;;;;;5039813;28;20056;-66
2022/02/26 07:27:22;;;;;;;10.02;5.15;;;0.90;99.90;;;;;;5035369;28;20437;-66
2022/02/26 07:29:47;;;;;;;7.28;4.80;;;1.00;99.90;;;;;;5035274;28;20104;-66
2022/02/26 07:32:13;;;;;;;8.20;4.38;;;1.00;99.90;;;;;;5034067;28;20033;-66
2022/02/26 07:34:39;;;;;;;8.60;4.78;;;1.00;99.90;;;;;;5033463;28;20021;-66
2022/02/26 07:37:04;;;;;;;6.15;4.55;;;1.00;99.90;;;;;;5033587;28;20021;-66
2022/02/26 07:39:30;;;;;;;8.75;6.07;;;1.00;99.90;;;;;;5032767;28;20026;-66
2022/02/26 07:41:55;;;;;;;6.40;4.30;;;1.10;99.90;;;;;;5033869;28;20032;-66
2022/02/26 07:44:21;;;;;;;7.43;4.25;;;1.10;99.90;;;;;;5040354;28;20082;-66
2022/02/26 07:46:46;;;;;;;6.05;3.78;;;1.10;99.90;;;;;;5033666;28;20036;-66
2022/02/26 07:49:12;;;;;;;7.10;4.03;;;1.10;99.90;;;;;;5033613;28;20041;-66
2022/02/26 07:51:38;;;;;;;7.35;4.40;;;1.20;99.90;;;;;;5033229;28;20487;-65
2022/02/26 07:54:03;;;;;;;5.20;4.10;;;1.30;99.90;;;;;;5033433;28;20465;-66
2022/02/26 07:56:29;;;;;;;8.82;4.88;;;1.30;99.90;;;;;;5033188;28;20029;-66
2022/02/26 07:58:54;;;;;;;7.65;4.57;;;1.30;99.90;;;;;;5030648;28;20026;-66
2022/02/26 08:01:20;;;;;;;8.70;4.85;;;1.40;99.90;;;;;;5031545;28;20040;-66
2022/02/26 08:03:46;;;;;;;8.15;4.88;;;1.40;99.90;;;;;;5032504;28;20048;-66
2022/02/26 08:06:11;;;;;;;8.60;4.97;;;1.40;99.90;;;;;;5031757;28;20033;-65
2022/02/26 08:08:37;;;;;;;15.52;8.25;;;1.40;99.90;;;;;;5032894;28;20071;-66
2022/02/26 08:11:02;;;;;;;15.30;9.30;;;1.50;99.90;;;;;;5032473;28;20378;-67
2022/02/26 08:13:28;;;;;;;13.60;8.35;;;1.50;99.90;;;;;;5031401;28;20056;-66
2022/02/26 08:15:53;;;;;;;13.13;8.65;;;1.50;99.90;;;;;;5049813;28;20493;-66
2022/02/26 08:18:19;;;;;;;15.32;7.22;;;1.50;99.90;;;;;;5034422;28;20031;-66
2022/02/26 08:20:44;;;;;;;18.77;10.15;;;1.50;99.90;;;;;;5033607;28;20044;-66
2022/02/26 08:23:10;;;;;;;13.88;9.00;;;1.60;99.90;;;;;;5043304;28;20515;-66
2022/02/26 08:25:36;;;;;;;18.55;10.93;;;1.70;99.90;;;;;;5033417;28;20057;-66
2022/02/26 08:28:01;;;;;;;17.95;11.10;;;1.70;99.90;;;;;;5034348;28;20025;-66
2022/02/26 08:30:27;;;;;;;18.73;12.00;;;1.80;99.90;;;;;;5034164;28;20120;-66
2022/02/26 08:32:53;;;;;;;21.50;12.30;;;1.80;99.90;;;;;;5049432;28;20401;-66
2022/02/26 08:35:19;;;;;;;21.95;14.07;;;1.90;99.90;;;;;;5034321;28;20026;-66
2022/02/26 08:37:49;;;;;;;19.33;13.05;;;2.00;99.90;;;;;;5033327;28;20017;-66
2022/02/26 08:40:16;;;;;;;22.95;15.23;;;2.00;99.90;;;;;;5034046;28;20036;-66
2022/02/26 08:42:42;;;;;;;21.90;14.85;;;2.10;99.90;;;;;;5048273;28;20528;-66
2022/02/26 08:45:08;;;;;;;18.35;14.25;;;2.20;99.90;;;;;;5030188;28;20383;-66
2022/02/26 08:47:34;;;;;;;16.50;12.63;;;2.30;99.90;;;;;;5033383;28;20596;-66
2022/02/26 08:50:02;;;;;;;16.10;11.35;;;2.30;99.90;;;;;;5033247;28;20120;-66
2022/02/26 08:52:28;;;;;;;13.65;9.80;;;2.50;99.90;;;;;;5033065;28;20018;-66
2022/02/26 08:54:54;;;;;;;22.00;15.20;;;2.60;99.90;;;;;;5047740;28;20021;-66
2022/02/26 08:57:20;;;;;;;25.13;15.65;;;2.70;99.90;;;;;;5033627;28;20131;-67
2022/02/26 08:59:45;;;;;;;21.02;13.48;;;2.80;99.90;;;;;;5032820;28;20025;-66
2022/02/26 09:02:11;;;;;;;18.10;12.90;;;2.90;99.90;;;;;;5032258;28;20076;-67
2022/02/26 09:04:37;;;;;;;16.15;12.20;;;3.00;99.90;;;;;;5033549;28;20484;-66
2022/02/26 09:07:03;;;;;;;26.67;16.77;;;3.10;99.90;;;;;;5048535;28;20036;-66
2022/02/26 09:09:29;;;;;;;27.73;17.40;;;3.20;99.90;;;;;;5048819;28;20028;-66
2022/02/26 09:11:55;;;;;;;26.75;18.77;;;3.20;99.90;;;;;;5048805;28;20030;-66
2022/02/26 09:14:20;;;;;;;25.63;17.90;;;3.40;99.90;;;;;;5048454;28;20052;-67
2022/02/26 09:16:46;;;;;;;19.67;16.17;;;3.50;99.90;;;;;;5032905;28;20560;-66
2022/02/26 09:19:12;;;;;;;26.30;17.90;;;3.50;99.90;;;;;;5031637;28;20364;-67
2022/02/26 09:21:38;;;;;;;29.17;19.00;;;3.60;99.90;;;;;;5031436;28;20493;-67
2022/02/26 09:24:04;;;;;;;26.20;16.83;;;3.70;99.90;;;;;;5031537;28;20032;-67
2022/02/26 09:26:29;;;;;;;27.40;19.15;;;3.90;99.90;;;;;;5031580;28;20029;-67
2022/02/26 09:28:55;;;;;;;23.00;18.10;;;3.90;99.90;;;;;;5043838;28;20017;-67
2022/02/26 09:31:21;;;;;;;22.48;15.82;;;4.10;99.90;;;;;;5031634;28;20028;-67
2022/02/26 09:33:47;;;;;;;22.70;16.50;;;4.20;99.90;;;;;;5031197;28;20474;-67
2022/02/26 09:36:13;;;;;;;31.48;21.55;;;4.30;99.90;;;;;;5031356;28;20409;-67
2022/02/26 09:38:40;;;;;;;27.27;20.30;;;4.40;99.90;;;;;;5043867;28;20030;-67
2022/02/26 09:41:07;;;;;;;31.48;20.33;;;4.50;99.90;;;;;;5044748;28;20075;-67
2022/02/26 09:43:34;;;;;;;26.23;19.85;;;4.70;99.90;;;;;;5032931;28;20150;-67
2022/02/26 09:46:03;;;;;;;39.88;21.80;;;4.80;99.90;;;;;;5030899;28;20168;-67
2022/02/26 09:48:28;;;;;;;33.38;21.90;;;5.00;99.90;;;;;;5030981;28;20025;-67
2022/02/26 09:50:54;;;;;;;31.83;21.02;;;5.10;99.90;;;;;;5031520;28;20032;-67
2022/02/26 09:53:21;;;;;;;29.70;20.90;;;5.20;99.90;;;;;;5030990;28;20372;-67
2022/02/26 09:55:46;;;;;;;26.85;17.27;;;5.40;99.90;;;;;;5034752;28;20108;-67
2022/02/26 09:58:16;;;;;;;28.35;18.48;;;5.50;99.90;;;;;;5031223;28;20473;-66
2022/02/26 10:00:42;;;;;;;;;;;5.70;99.90;;;;;;5031759;28;20013;-66
2022/02/26 10:03:28;;;;;;;27.98;16.92;;;5.80;99.90;;;;;;5031011;28;19905;-66
2022/02/26 10:06:12;;;;;;;21.33;14.25;;;6.00;99.90;;;;;;5031064;28;20075;-66
2022/02/26 10:08:44;;;;;;;24.45;12.70;;;6.30;99.90;;;;;;5028968;28;20072;-66
2022/02/26 10:11:31;;;;;;;25.83;11.23;;;6.50;99.90;;;;;;5046204;28;20022;-66
2022/02/26 10:14:10;;;;;;;20.60;9.63;;;6.70;99.90;;;;;;5029758;28;20084;-66
2022/02/26 10:16:56;;;;;;;22.88;10.70;;;6.90;99.90;;;;;;5030936;28;20026;-66
2022/02/26 10:19:34;;;;;;;18.45;8.18;;;7.10;99.90;;;;;;5030845;28;20021;-66
2022/02/26 10:22:08;;;;;;;12.73;4.95;;;7.30;99.90;;;;;;5030773;28;20043;-65
2022/02/26 10:24:35;;;;;;;18.75;6.32;;;7.50;99.90;;;;;;5030841;28;20117;-66
2022/02/26 10:27:09;;;;;;;15.77;4.15;;;7.70;99.90;;;;;;5030615;28;20060;-66
2022/02/26 10:29:39;;;;;;;8.02;2.15;;;7.90;99.90;;;;;;5038888;28;20032;-66
2022/02/26 10:32:06;;;;;;;;;;;8.30;99.90;;;;;;5031490;28;20104;-66
2022/02/26 10:34:34;;;;;;;15.20;3.25;;;8.60;98.80;;;;;;5034844;28;19913;-66
2022/02/26 10:37:01;;;;;;;14.18;3.35;;;9.20;98.20;;;;;;5043162;28;20025;-66
2022/02/26 10:39:35;;;;;;;10.82;2.75;;;11.50;94.30;;;;;;5031015;28;20024;-66
2022/02/26 10:42:02;;;;;;;10.00;2.22;;;14.10;87.00;;;;;;5043056;28;20014;-67
2022/02/26 10:44:28;;;;;;;12.02;2.33;;;15.00;72.80;;;;;;5030728;28;20037;-67
2022/02/26 10:47:05;;;;;;;9.48;3.20;;;16.10;68.90;;;;;;5036222;28;20022;-66
2022/02/26 10:49:31;;;;;;;7.00;1.45;;;18.10;64.30;;;;;;5030501;28;20374;-67
2022/02/26 10:51:56;;;;;;;6.63;1.67;;;20.30;61.90;;;;;;5036008;28;20032;-67
2022/02/26 10:54:24;;;;;;;9.02;2.60;;;22.80;55.40;;;;;;5030539;28;20057;-67
2022/02/26 10:56:51;;;;;;;5.43;2.38;;;23.60;46.40;;;;;;5030574;28;20021;-67
2022/02/26 10:59:32;;;;;;;6.05;2.42;;;23.00;43.80;;;;;;5031017;28;20025;-67
2022/02/26 11:02:08;;;;;;;5.00;1.85;;;23.30;47.30;;;;;;5047651;28;20028;-67
2022/02/26 11:04:35;;;;;;;9.32;3.10;;;25.80;47.90;;;;;;5032572;28;20109;-67
2022/02/26 11:07:01;;;;;;;8.30;2.38;;;24.50;40.10;;;;;;5034031;28;20029;-67
2022/02/26 11:09:28;;;;;;;5.68;2.20;;;21.20;43.30;;;;;;5034107;28;20025;-67
2022/02/26 11:11:59;;;;;;;10.00;2.35;;;19.00;48.00;;;;;;5049289;28;20485;-67
2022/02/26 11:14:27;;;;;;;6.82;2.28;;;20.20;47.10;;;;;;5033703;28;20042;-67
2022/02/26 11:16:56;;;;;;;9.43;2.70;;;20.50;47.20;;;;;;5034066;28;20029;-67
2022/02/26 11:19:24;;;;;;;9.77;3.00;;;19.20;46.30;;;;;;5033840;28;20359;-67
2022/02/26 11:21:50;;;;;;;10.48;2.70;;;17.60;50.50;;;;;;5033984;28;20014;-67
2022/02/26 11:24:17;;;;;;;6.63;2.25;;;18.60;51.50;;;;;;5033916;28;20025;-67
2022/02/26 11:26:43;;;;;;;8.30;3.03;;;20.50;48.20;;;;;;5041080;28;20025;-67
2022/02/26 11:29:10;;;;;;;9.52;2.40;;;21.90;44.00;;;;;;5033805;28;20505;-67
2022/02/26 11:31:47;;;;;;;5.45;2.30;;;22.90;42.30;;;;;;5035152;28;20370;-67
2022/02/26 11:34:20;;;;;;;9.40;2.33;;;22.70;40.00;;;;;;5034810;28;20029;-68
2022/02/26 11:36:52;;;;;;;7.72;2.30;;;22.20;40.50;;;;;;5033806;28;20071;-67
2022/02/26 11:39:26;;;;;;;6.38;1.63;;;21.90;42.50;;;;;;5034295;28;20022;-67
2022/02/26 11:42:16;;;;;;;7.25;2.30;;;23.60;42.90;;;;;;5034033;28;20033;-67
2022/02/26 11:44:43;;;;;;;9.88;2.70;;;22.40;39.50;;;;;;5043359;28;20029;-67
2022/02/26 11:47:13;;;;;;;6.43;1.60;;;19.80;43.50;;;;;;5033164;28;20026;-66
2022/02/26 11:49:53;;;;;;;12.35;2.58;;;20.00;45.50;;;;;;5033378;28;20021;-67
2022/02/26 11:52:35;;;;;;;5.70;2.10;;;20.10;42.50;;;;;;5031673;28;20473;-67
2022/02/26 11:55:01;;;;;;;9.43;2.47;;;17.90;45.60;;;;;;5034582;28;20022;-66
2022/02/26 11:57:30;;;;;;;7.47;1.90;;;16.10;49.50;;;;;;5033070;28;20040;-67
2022/02/26 12:00:09;;;;;;;6.37;1.77;;;15.00;52.50;;;;;;5035073;28;20068;-66
2022/02/26 12:02:36;;;;;;;6.70;1.55;;;14.70;54.00;;;;;;5034820;28;20485;-67
2022/02/26 12:05:02;;;;;;;5.80;1.98;;;14.40;55.50;;;;;;5050157;28;20408;-65
2022/02/26 12:07:30;;;;;;;8.50;1.95;;;15.70;51.80;;;;;;5034639;28;20033;-65
2022/02/26 12:10:06;;;;;;;11.43;2.70;;;17.50;50.60;;;;;;5033248;28;20120;-66
2022/02/26 12:12:39;;;;;;;11.60;2.83;;;18.80;46.90;;;;;;5032200;28;20048;-65
2022/02/26 12:15:14;;;;;;;9.25;2.15;;;17.30;46.40;;;;;;5032963;28;20032;-65
2022/02/26 12:17:55;;;;;;;5.72;1.95;;;15.90;49.70;;;;;;5032615;28;20078;-65
2022/02/26 12:20:28;;;;;;;10.52;1.98;;;15.30;52.70;;;;;;5033945;28;20018;-65
2022/02/26 12:23:05;;;;;;;9.80;2.40;;;15.10;52.00;;;;;;5049826;28;20032;-65
2022/02/26 12:25:37;;;;;;;8.68;1.92;;;14.40;53.20;;;;;;5034393;28;20025;-65
2022/02/26 12:28:08;;;;;;;7.55;1.60;;;14.90;54.30;;;;;;5034343;28;20080;-65
2022/02/26 12:31:10;;;;;;;8.65;2.22;;;16.40;52.00;;;;;;5049590;28;20082;-65
2022/02/26 12:33:43;;;;;;;9.50;1.90;;;17.70;48.20;;;;;;5033767;28;20041;-65
2022/02/26 12:36:13;;;;;;;7.93;2.22;;;18.40;47.20;;;;;;5034163;28;20549;-65
2022/02/26 12:38:48;;;;;;;8.05;1.88;;;18.50;45.60;;;;;;5049372;28;20079;-65
2022/02/26 12:41:30;;;;;;;4.80;1.52;;;18.30;45.90;;;;;;5049455;28;20477;-65
2022/02/26 12:43:59;;;;;;;8.63;2.05;;;16.90;46.40;;;;;;5033912;28;20021;-65
2022/02/26 12:46:29;;;;;;;7.15;1.67;;;15.90;49.50;;;;;;5034063;28;20033;-64
2022/02/26 12:48:58;;;;;;;5.30;0.90;;;17.00;51.00;;;;;;5033856;28;20033;-65
2022/02/26 12:51:25;;;;;;;7.78;2.25;;;19.50;49.20;;;;;;5049253;28;20021;-66